Independence of the Seas — C6WW4 — position and weather

sailwx.info

Track history (hours):
 
Tides and Currents Weather Stations Pressure Air Temp Water Temp Dewpoint Dewpoint Depression Visibility Wind Speed Wind Dir Waves Ship Positions

Independence of the Seas

Last reported at 2018-Oct-14 21:05 UTC. Time now 2018-Oct-16 01:14 UTC.
Position N 28°39' W 016°05'.

Length 339 m; draft 9 m.

Type: Passenger vessel. MMSI: 309374000.

Date/timePositionNaut miles runAvg speedWind from/ knotsBaromVisibWave heightAir tempDewpointWater temp
2018-Oct-14 21:05N 28°39' W 016°05'111.0
2018-Oct-14 21:01N 28°38' W 016°05'110.9
2018-Oct-14 20:57N 28°37' W 016°05'510.7
2018-Oct-14 20:30N 28°32' W 016°05'4 9.9
2018-Oct-14 20:03N 28°30' W 016°09'110.5
2018-Oct-14 20:00N 28°29' W 016°10'4 8.0
2018-Oct-14 19:31N 28°29' W 016°14'0 1.0
2018-Oct-14 19:03N 28°28' W 016°14'0 0.0
2018-Oct-14 19:00N 28°28' W 016°14'2 3.0
2018-Oct-14 18:30N 28°29' W 016°13'3 6.0
2018-Oct-14 18:03N 28°29' W 016°10'0 8.9
2018-Oct-14 18:00N 28°29' W 016°10'3 6.9
2018-Oct-14 17:30N 28°29' W 016°14'0 0.7
2018-Oct-14 17:02N 28°29' W 016°14'0 0.0
2018-Oct-14 16:59N 28°29' W 016°14'0 0.0
2018-Oct-14 16:29N 28°29' W 016°14'0 0.0
2018-Oct-14 16:02N 28°29' W 016°14'0 0.0
2018-Oct-14 15:56N 28°29' W 016°14'0 0.0
2018-Oct-14 15:29N 28°29' W 016°14'0 0.0
2018-Oct-14 15:02N 28°29' W 016°14'0 0.0
2018-Oct-14 14:59N 28°29' W 016°14'0 0.0
2018-Oct-14 14:29N 28°29' W 016°14'0 0.0
2018-Oct-14 13:59N 28°29' W 016°14'0 0.0
2018-Oct-14 13:29N 28°29' W 016°14'0 0.0
2018-Oct-14 13:02N 28°29' W 016°14'0 0.0
2018-Oct-14 12:59N 28°29' W 016°14'0 0.0
2018-Oct-14 12:29N 28°29' W 016°14'0 0.0
2018-Oct-14 12:02N 28°29' W 016°14'0 0.0
2018-Oct-14 11:59N 28°29' W 016°14'0 0.0
2018-Oct-14 11:29N 28°29' W 016°14'0 0.0
2018-Oct-14 11:02N 28°29' W 016°14'0 0.0
2018-Oct-14 10:56N 28°29' W 016°14'0 0.0
2018-Oct-14 10:29N 28°29' W 016°14'0 0.0
2018-Oct-14 10:02N 28°29' W 016°14'0 0.0
2018-Oct-14 09:59N 28°29' W 016°14'0 0.0
2018-Oct-14 09:29N 28°29' W 016°14'0 0.0
2018-Oct-14 09:02N 28°29' W 016°14'0 0.0
2018-Oct-14 08:59N 28°29' W 016°14'0 0.0
2018-Oct-14 08:26N 28°29' W 016°14'0 0.0
2018-Oct-14 08:02N 28°29' W 016°14'0 0.0
2018-Oct-14 07:59N 28°29' W 016°14'0 0.0
2018-Oct-14 07:29N 28°29' W 016°14'0 0.0
2018-Oct-14 07:03N 28°29' W 016°14'0 0.0
2018-Oct-14 07:01N 28°29' W 016°14'1 1.4
2018-Oct-14 06:31N 28°28' W 016°14'4 9.0
2018-Oct-14 06:04N 28°24' W 016°15'0 9.6
2018-Oct-14 06:01N 28°24' W 016°15'5 9.6
2018-Oct-14 05:31N 28°19' W 016°16'4 9.9
2018-Oct-14 05:03N 28°15' W 016°18'010.0
2018-Oct-14 05:01N 28°14' W 016°18'510.1
2018-Oct-14 04:30N 28°09' W 016°20'58 6.9
2018-Oct-13 20:08N 27°44' W 015°21'1 9.3
2018-Oct-13 20:02N 27°45' W 015°20'0 9.6
2018-Oct-13 20:00N 27°45' W 015°20'5 9.3
2018-Oct-13 19:30N 27°50' W 015°19'4 9.4
2018-Oct-13 19:03N 27°54' W 015°19'0 9.6
2018-Oct-13 19:00N 27°54' W 015°19'510.0
2018-Oct-13 18:31N 27°59' W 015°19'4 9.4
2018-Oct-13 18:04N 28°03' W 015°21'0 9.0
2018-Oct-13 18:00N 28°04' W 015°21'4 9.0
2018-Oct-13 17:31N 28°07' W 015°24'2 3.6
2018-Oct-13 17:03N 28°08' W 015°26'0 0.0
2018-Oct-13 17:01N 28°08' W 015°26'0 0.0
2018-Oct-13 16:31N 28°08' W 015°26'0 0.0
2018-Oct-13 16:03N 28°08' W 015°26'0 0.0
2018-Oct-13 16:01N 28°08' W 015°26'0 0.0
2018-Oct-13 15:31N 28°08' W 015°26'0 0.0
2018-Oct-13 15:03N 28°08' W 015°26'0 0.0
2018-Oct-13 15:01N 28°08' W 015°26'0 0.0
2018-Oct-13 14:31N 28°08' W 015°26'0 0.0
2018-Oct-13 14:01N 28°08' W 015°26'0 0.0
2018-Oct-13 13:31N 28°08' W 015°26'0 0.0
2018-Oct-13 13:03N 28°08' W 015°26'0 0.0
2018-Oct-13 13:01N 28°08' W 015°26'0 0.0
2018-Oct-13 12:31N 28°08' W 015°26'0 0.0
2018-Oct-13 12:03N 28°08' W 015°26'0 0.0
2018-Oct-13 12:00N 28°08' W 015°26'0 0.0
2018-Oct-13 11:30N 28°08' W 015°26'0 0.0
2018-Oct-13 11:03N 28°08' W 015°26'0 0.0
2018-Oct-13 11:00N 28°08' W 015°26'0 0.0
2018-Oct-13 10:30N 28°08' W 015°26'0 0.0
2018-Oct-13 10:03N 28°08' W 015°26'0 0.0
2018-Oct-13 10:00N 28°08' W 015°26'0 0.0
2018-Oct-13 09:30N 28°08' W 015°26'0 0.0
2018-Oct-13 09:04N 28°08' W 015°26'0 0.0
2018-Oct-13 09:00N 28°08' W 015°26'0 0.0
2018-Oct-13 08:30N 28°08' W 015°26'0 0.0
2018-Oct-13 08:04N 28°08' W 015°26'0 0.0
2018-Oct-13 08:00N 28°08' W 015°26'0 0.0
2018-Oct-13 07:30N 28°08' W 015°26'0 0.0
2018-Oct-13 07:03N 28°08' W 015°26'0 0.0
2018-Oct-13 07:00N 28°08' W 015°26'1 2.5
2018-Oct-13 06:30N 28°07' W 015°25'2 5.1
2018-Oct-13 06:04N 28°08' W 015°22'0 6.7
2018-Oct-13 06:00N 28°08' W 015°22'3 6.4
2018-Oct-13 05:30N 28°11' W 015°20'3 6.5
2018-Oct-13 05:04N 28°13' W 015°18'0 6.6
2018-Oct-13 05:00N 28°13' W 015°18'3 6.6
2018-Oct-13 04:31N 28°16' W 015°16'3 7.5
2018-Oct-13 04:03N 28°19' W 015°13'0 9.1
2018-Oct-13 04:00N 28°19' W 015°13'5 9.3
2018-Oct-13 03:30N 28°23' W 015°10'4 9.5
2018-Oct-13 03:04N 28°25' W 015°05'0 9.3
2018-Oct-13 03:00N 28°25' W 015°05'5 9.7
2018-Oct-13 02:30N 28°27' W 014°60'4 9.9
2018-Oct-13 02:03N 28°29' W 014°55'0 9.9
2018-Oct-13 02:01N 28°29' W 014°55'5 9.7
2018-Oct-13 01:30N 28°31' W 014°50'4 9.6
2018-Oct-13 01:03N 28°33' W 014°46'0 9.5
2018-Oct-13 01:01N 28°34' W 014°45'4 8.9
2018-Oct-13 00:31N 28°35' W 014°40'5 9.1
2018-Oct-12 23:59N 28°38' W 014°36'5 9.4
2018-Oct-12 23:30N 28°40' W 014°31'4 9.3
2018-Oct-12 23:03N 28°41' W 014°27'1 9.2
2018-Oct-12 22:59N 28°42' W 014°26'5 9.3
2018-Oct-12 22:29N 28°44' W 014°22'4 9.4
2018-Oct-12 22:03N 28°46' W 014°17'0 9.7
2018-Oct-12 22:00N 28°46' W 014°17'41 3.8
2018-Oct-12 11:13N 28°58' W 013°32'0 0.0
2018-Oct-12 10:55N 28°58' W 013°32'0 0.0
2018-Oct-12 10:13N 28°58' W 013°32'0 0.0
2018-Oct-12 06:17N 28°58' W 013°32'58315.9
2018-Oct-10 17:40N 36°33' W 006°19'211.2
2018-Oct-10 17:31N 36°33' W 006°17'1 0.6
2018-Oct-10 15:34N 36°32' W 006°17'0 0.0
2018-Oct-10 14:49N 36°32' W 006°17'0 0.0
2018-Oct-10 07:58N 36°32' W 006°17'2 4.1
2018-Oct-10 07:30N 36°34' W 006°19'11718.5
2018-Oct-10 01:12N 36°31' W 008°44'6415.4
2018-Oct-09 21:04N 37°21' W 009°33'018.5
2018-Oct-09 21:03N 37°21' W 009°33'118.6
2018-Oct-09 21:01N 37°22' W 009°33'1218.8
2018-Oct-09 20:24N 37°33' W 009°31'619.1
2018-Oct-09 20:04N 37°40' W 009°30'119.2
2018-Oct-09 20:00N 37°41' W 009°30'919.1
2018-Oct-09 19:31N 37°50' W 009°29'818.7
2018-Oct-09 19:04N 37°59' W 009°28'118.3
2018-Oct-09 19:00N 37°59' W 009°27'918.6
2018-Oct-09 18:30N 38°09' W 009°26'818.6
2018-Oct-09 18:04N 38°17' W 009°25'118.6
2018-Oct-09 18:01N 38°18' W 009°25'918.1
2018-Oct-09 17:31N 38°27' W 009°24'818.4
2018-Oct-09 17:04N 38°35' W 009°23'118.2
2018-Oct-09 17:01N 38°36' W 009°23'916.9
2018-Oct-09 16:30N 38°41' W 009°14'511.7
2018-Oct-09 16:03N 38°42' W 009°08'0 2.1
2018-Oct-09 16:00N 38°42' W 009°08'0 0.0
2018-Oct-09 15:29N 38°42' W 009°08'0 0.0
2018-Oct-09 15:02N 38°42' W 009°08'0 0.0
2018-Oct-09 14:59N 38°42' W 009°08'0 0.0
2018-Oct-09 14:29N 38°42' W 009°08'0 0.0
2018-Oct-09 13:29N 38°42' W 009°08'0 0.0
2018-Oct-09 13:02N 38°42' W 009°08'0 0.0
2018-Oct-09 12:59N 38°42' W 009°08'0 0.0
2018-Oct-09 12:29N 38°42' W 009°08'0 0.0
2018-Oct-09 12:02N 38°42' W 009°08'0 0.0
2018-Oct-09 11:59N 38°42' W 009°08'0 0.0
2018-Oct-09 11:29N 38°42' W 009°08'0 0.0
2018-Oct-09 11:02N 38°42' W 009°08'0 0.0
2018-Oct-09 10:59N 38°42' W 009°08'0 0.0
2018-Oct-09 10:26N 38°42' W 009°08'0 0.0
2018-Oct-09 10:02N 38°42' W 009°08'0 0.0
2018-Oct-09 09:59N 38°42' W 009°08'0 0.0
2018-Oct-09 09:29N 38°42' W 009°08'0 0.0
2018-Oct-09 08:56N 38°42' W 009°08'0 0.0
2018-Oct-09 08:29N 38°42' W 009°08'0 0.0
2018-Oct-09 08:02N 38°42' W 009°08'0 0.0
2018-Oct-09 07:59N 38°42' W 009°08'0 0.0
2018-Oct-09 07:29N 38°42' W 009°08'0 0.1
2018-Oct-09 07:04N 38°42' W 009°08'0 2.6
2018-Oct-09 07:00N 38°42' W 009°07'3 5.5
2018-Oct-09 06:30N 38°41' W 009°11'511.4
2018-Oct-09 06:04N 38°41' W 009°17'113.8
2018-Oct-09 06:01N 38°40' W 009°18'714.8
2018-Oct-09 05:31N 38°37' W 009°26'715.0
2018-Oct-09 05:04N 38°38' W 009°35'114.4
2018-Oct-09 05:01N 38°38' W 009°36'713.7
2018-Oct-09 04:30N 38°42' W 009°42'816.8
2018-Oct-09 04:03N 38°50' W 009°43'117.3
2018-Oct-09 04:00N 38°51' W 009°43'816.5
2018-Oct-09 03:30N 38°59' W 009°42'716.7
2018-Oct-09 03:03N 39°06' W 009°44'116.4
2018-Oct-09 03:00N 39°07' W 009°44'816.0
2018-Oct-09 02:31N 39°15' W 009°45'715.8
2018-Oct-09 02:03N 39°22' W 009°45'116.1
2018-Oct-09 02:00N 39°23' W 009°45'816.7
2018-Oct-09 01:30N 39°31' W 009°45'716.6
2018-Oct-09 01:03N 39°39' W 009°46'116.1
2018-Oct-09 01:00N 39°40' W 009°46'816.2
2018-Oct-09 00:30N 39°48' W 009°44'716.1
2018-Oct-09 00:03N 39°55' W 009°41'1016.1
2018-Oct-08 23:27N 40°04' W 009°38'616.0
2018-Oct-08 23:03N 40°10' W 009°36'115.8
2018-Oct-08 23:00N 40°11' W 009°36'815.7
2018-Oct-08 22:30N 40°19' W 009°34'917.9
2018-Oct-08 22:02N 40°27' W 009°31'918.9
2018-Oct-08 21:34N 40°35' W 009°29'218.8
2018-Oct-08 21:29N 40°37' W 009°28'818.7
2018-Oct-08 21:03N 40°45' W 009°26'118.9
2018-Oct-08 21:00N 40°46' W 009°25'919.0
2018-Oct-08 20:30N 40°55' W 009°23'919.0
2018-Oct-08 20:02N 41°03' W 009°20'119.2
2018-Oct-08 20:00N 41°04' W 009°19'1020.2
2018-Oct-08 19:30N 41°14' W 009°16'919.5
2018-Oct-08 19:03N 41°22' W 009°13'119.5
2018-Oct-08 19:00N 41°23' W 009°12'4419.4
2018-Oct-08 16:45N 42°06' W 008°58'519.1
2018-Oct-08 16:30N 42°10' W 008°54'817.6
2018-Oct-08 16:03N 42°14' W 008°46'112.2
2018-Oct-08 16:00N 42°14' W 008°45'1 0.1
2018-Oct-08 08:32N 42°15' W 008°44'0 5.9
2018-Oct-08 08:30N 42°15' W 008°44'612.6
2018-Oct-08 08:04N 42°14' W 008°52'117.2
2018-Oct-08 08:01N 42°14' W 008°53'918.8
2018-Oct-08 07:30N 42°21' W 009°02'50916.4
2018-Oct-07 00:28N 49°50' W 003°16'1117.2
2018-Oct-06 23:50N 49°55' W 003°02'717.7
2018-Oct-06 23:27N 49°58' W 002°52'817.9
2018-Oct-06 23:02N 50°00' W 002°41'1517.5
2018-Oct-06 22:10N 50°06' W 002°19'317.0
2018-Oct-06 21:58N 50°08' W 002°14'1016.4
2018-Oct-06 21:22N 50°12' W 002°01'3314.0
2018-Oct-06 19:02N 50°28' W 001°16'112.8
2018-Oct-06 18:59N 50°28' W 001°15'612.3
2018-Oct-06 18:30N 50°31' W 001°07'612.6
2018-Oct-06 18:03N 50°35' W 001°00'114.5
2018-Oct-06 18:00N 50°36' W 000°60'713.4
2018-Oct-06 17:30N 50°42' W 000°58'613.7
2018-Oct-06 17:04N 50°45' W 001°07'119.9
2018-Oct-06 17:01N 50°45' W 001°08'713.3
2018-Oct-06 16:31N 50°48' W 001°18'4 9.0
2018-Oct-06 16:03N 50°51' W 001°21'112.1
2018-Oct-06 16:00N 50°52' W 001°22'3 4.5
2018-Oct-06 15:22N 50°54' W 001°25'0 0.0
2018-Oct-06 14:49N 50°54' W 001°25'0 0.0
2018-Oct-06 14:01N 50°54' W 001°25'0 0.0
2018-Oct-06 13:52N 50°54' W 001°25'0 0.0
2018-Oct-06 13:28N 50°54' W 001°25'0 0.0
2018-Oct-06 12:52N 50°54' W 001°25'0 0.0
2018-Oct-06 11:46N 50°54' W 001°25'0 0.0
2018-Oct-06 11:22N 50°54' W 001°25'0 0.0
2018-Oct-06 07:10N 50°54' W 001°25'0 0.0
2018-Oct-06 07:01N 50°54' W 001°25'0 0.0
2018-Oct-06 06:52N 50°54' W 001°25'0 0.0
2018-Oct-06 06:25N 50°54' W 001°25'0 0.0
2018-Oct-06 05:55N 50°54' W 001°25'0 0.0
2018-Oct-06 05:28N 50°54' W 001°25'0 0.0
2018-Oct-06 04:34N 50°54' W 001°25'0 0.0
2018-Oct-06 04:22N 50°54' W 001°25'0 0.0
2018-Oct-06 04:03N 50°54' W 001°25'0 0.2
2018-Oct-06 04:00N 50°54' W 001°25'3 5.0
2018-Oct-06 03:30N 50°52' W 001°22'510.1
2018-Oct-06 03:04N 50°49' W 001°17'111.8
2018-Oct-06 03:00N 50°48' W 001°18'510.2
2018-Oct-06 02:30N 50°46' W 001°11'817.9
2018-Oct-06 02:04N 50°43' W 000°59'114.4
2018-Oct-06 02:01N 50°42' W 000°58'713.2
2018-Oct-06 01:30N 50°36' W 000°60'817.8
2018-Oct-06 01:03N 50°30' W 001°10'118.1
2018-Oct-06 01:00N 50°30' W 001°11'918.0
2018-Oct-06 00:30N 50°24' W 001°22'817.6
2018-Oct-06 00:03N 50°20' W 001°32'117.5
2018-Oct-06 00:00N 50°19' W 001°33'917.5
2018-Oct-05 23:30N 50°15' W 001°45'817.2
2018-Oct-05 23:03N 50°10' W 001°54'117.1
2018-Oct-05 23:00N 50°09' W 001°55'816.9
2018-Oct-05 22:30N 50°05' W 002°06'817.0
2018-Oct-05 22:03N 50°00' W 002°16'117.1
2018-Oct-05 22:00N 49°60' W 002°17'817.0
2018-Oct-05 21:30N 49°56' W 002°29'817.3
2018-Oct-05 21:03N 49°54' W 002°41'117.0
2018-Oct-05 21:00N 49°54' W 002°42'917.4
2018-Oct-05 20:30N 49°51' W 002°55'817.9
2018-Oct-05 20:03N 49°47' W 003°05'118.2
2018-Oct-05 20:00N 49°46' W 003°06'918.1
2018-Oct-05 19:30N 49°41' W 003°19'1017.8
2018-Oct-05 18:57N 49°37' W 003°32'1418.0
2018-Oct-05 18:09N 49°30' W 003°51'850.5
2018-Oct-05 17:59N 49°25' W 004°02'4016.8
2018-Oct-05 15:35N 49°03' W 004°54'219.6
2018-Oct-05 15:29N 49°02' W 004°57'819.6
2018-Oct-05 15:03N 48°58' W 005°07'119.6
2018-Oct-05 15:00N 48°57' W 005°09'1019.2
2018-Oct-05 14:30N 48°52' W 005°21'1019.9
2018-Oct-05 14:00N 48°46' W 005°33'1020.0
2018-Oct-05 13:30N 48°39' W 005°43'1420.0
2018-Oct-05 12:48N 48°26' W 005°54'24319.6
2018-Oct-05 00:21N 44°50' W 008°36'1819.5
2018-Oct-04 23:26N 44°34' W 008°47'  
Track history (hours):
 
Tides and Currents Weather Stations Pressure Air Temp Water Temp Dewpoint Dewpoint Depression Visibility Wind Speed Wind Dir Waves Ship Positions

Independence of the Seas

Last reported at 2018-Oct-14 21:05 UTC. Time now 2018-Oct-16 01:14 UTC.
Position N 28°39' W 016°05'.

Length 339 m; draft 9 m.

Type: Passenger vessel. MMSI: 309374000.

Date/timePositionNaut miles runAvg speedWind from/ knotsBaromVisibWave heightAir tempDewpointWater temp
2018-Oct-14 21:05N 28°39' W 016°05'111.0
2018-Oct-14 21:01N 28°38' W 016°05'110.9
2018-Oct-14 20:57N 28°37' W 016°05'510.7
2018-Oct-14 20:30N 28°32' W 016°05'4 9.9
2018-Oct-14 20:03N 28°30' W 016°09'110.5
2018-Oct-14 20:00N 28°29' W 016°10'4 8.0
2018-Oct-14 19:31N 28°29' W 016°14'0 1.0
2018-Oct-14 19:03N 28°28' W 016°14'0 0.0
2018-Oct-14 19:00N 28°28' W 016°14'2 3.0
2018-Oct-14 18:30N 28°29' W 016°13'3 6.0
2018-Oct-14 18:03N 28°29' W 016°10'0 8.9
2018-Oct-14 18:00N 28°29' W 016°10'3 6.9
2018-Oct-14 17:30N 28°29' W 016°14'0 0.7
2018-Oct-14 17:02N 28°29' W 016°14'0 0.0
2018-Oct-14 16:59N 28°29' W 016°14'0 0.0
2018-Oct-14 16:29N 28°29' W 016°14'0 0.0
2018-Oct-14 16:02N 28°29' W 016°14'0 0.0
2018-Oct-14 15:56N 28°29' W 016°14'0 0.0
2018-Oct-14 15:29N 28°29' W 016°14'0 0.0
2018-Oct-14 15:02N 28°29' W 016°14'0 0.0
2018-Oct-14 14:59N 28°29' W 016°14'0 0.0
2018-Oct-14 14:29N 28°29' W 016°14'0 0.0
2018-Oct-14 13:59N 28°29' W 016°14'0 0.0
2018-Oct-14 13:29N 28°29' W 016°14'0 0.0
2018-Oct-14 13:02N 28°29' W 016°14'0 0.0
2018-Oct-14 12:59N 28°29' W 016°14'0 0.0
2018-Oct-14 12:29N 28°29' W 016°14'0 0.0
2018-Oct-14 12:02N 28°29' W 016°14'0 0.0
2018-Oct-14 11:59N 28°29' W 016°14'0 0.0
2018-Oct-14 11:29N 28°29' W 016°14'0 0.0
2018-Oct-14 11:02N 28°29' W 016°14'0 0.0
2018-Oct-14 10:56N 28°29' W 016°14'0 0.0
2018-Oct-14 10:29N 28°29' W 016°14'0 0.0
2018-Oct-14 10:02N 28°29' W 016°14'0 0.0
2018-Oct-14 09:59N 28°29' W 016°14'0 0.0
2018-Oct-14 09:29N 28°29' W 016°14'0 0.0
2018-Oct-14 09:02N 28°29' W 016°14'0 0.0
2018-Oct-14 08:59N 28°29' W 016°14'0 0.0
2018-Oct-14 08:26N 28°29' W 016°14'0 0.0
2018-Oct-14 08:02N 28°29' W 016°14'0 0.0
2018-Oct-14 07:59N 28°29' W 016°14'0 0.0
2018-Oct-14 07:29N 28°29' W 016°14'0 0.0
2018-Oct-14 07:03N 28°29' W 016°14'0 0.0
2018-Oct-14 07:01N 28°29' W 016°14'1 1.4
2018-Oct-14 06:31N 28°28' W 016°14'4 9.0
2018-Oct-14 06:04N 28°24' W 016°15'0 9.6
2018-Oct-14 06:01N 28°24' W 016°15'5 9.6
2018-Oct-14 05:31N 28°19' W 016°16'4 9.9
2018-Oct-14 05:03N 28°15' W 016°18'010.0
2018-Oct-14 05:01N 28°14' W 016°18'510.1
2018-Oct-14 04:30N 28°09' W 016°20'58 6.9
2018-Oct-13 20:08N 27°44' W 015°21'1 9.3
2018-Oct-13 20:02N 27°45' W 015°20'0 9.6
2018-Oct-13 20:00N 27°45' W 015°20'5 9.3
2018-Oct-13 19:30N 27°50' W 015°19'4 9.4
2018-Oct-13 19:03N 27°54' W 015°19'0 9.6
2018-Oct-13 19:00N 27°54' W 015°19'510.0
2018-Oct-13 18:31N 27°59' W 015°19'4 9.4
2018-Oct-13 18:04N 28°03' W 015°21'0 9.0
2018-Oct-13 18:00N 28°04' W 015°21'4 9.0
2018-Oct-13 17:31N 28°07' W 015°24'2 3.6
2018-Oct-13 17:03N 28°08' W 015°26'0 0.0
2018-Oct-13 17:01N 28°08' W 015°26'0 0.0
2018-Oct-13 16:31N 28°08' W 015°26'0 0.0
2018-Oct-13 16:03N 28°08' W 015°26'0 0.0
2018-Oct-13 16:01N 28°08' W 015°26'0 0.0
2018-Oct-13 15:31N 28°08' W 015°26'0 0.0
2018-Oct-13 15:03N 28°08' W 015°26'0 0.0
2018-Oct-13 15:01N 28°08' W 015°26'0 0.0
2018-Oct-13 14:31N 28°08' W 015°26'0 0.0
2018-Oct-13 14:01N 28°08' W 015°26'0 0.0
2018-Oct-13 13:31N 28°08' W 015°26'0 0.0
2018-Oct-13 13:03N 28°08' W 015°26'0 0.0
2018-Oct-13 13:01N 28°08' W 015°26'0 0.0
2018-Oct-13 12:31N 28°08' W 015°26'0 0.0
2018-Oct-13 12:03N 28°08' W 015°26'0 0.0
2018-Oct-13 12:00N 28°08' W 015°26'0 0.0
2018-Oct-13 11:30N 28°08' W 015°26'0 0.0
2018-Oct-13 11:03N 28°08' W 015°26'0 0.0
2018-Oct-13 11:00N 28°08' W 015°26'0 0.0
2018-Oct-13 10:30N 28°08' W 015°26'0 0.0
2018-Oct-13 10:03N 28°08' W 015°26'0 0.0
2018-Oct-13 10:00N 28°08' W 015°26'0 0.0
2018-Oct-13 09:30N 28°08' W 015°26'0 0.0
2018-Oct-13 09:04N 28°08' W 015°26'0 0.0
2018-Oct-13 09:00N 28°08' W 015°26'0 0.0
2018-Oct-13 08:30N 28°08' W 015°26'0 0.0
2018-Oct-13 08:04N 28°08' W 015°26'0 0.0
2018-Oct-13 08:00N 28°08' W 015°26'0 0.0
2018-Oct-13 07:30N 28°08' W 015°26'0 0.0
2018-Oct-13 07:03N 28°08' W 015°26'0 0.0
2018-Oct-13 07:00N 28°08' W 015°26'1 2.5
2018-Oct-13 06:30N 28°07' W 015°25'2 5.1
2018-Oct-13 06:04N 28°08' W 015°22'0 6.7
2018-Oct-13 06:00N 28°08' W 015°22'3 6.4
2018-Oct-13 05:30N 28°11' W 015°20'3 6.5
2018-Oct-13 05:04N 28°13' W 015°18'0 6.6
2018-Oct-13 05:00N 28°13' W 015°18'3 6.6
2018-Oct-13 04:31N 28°16' W 015°16'3 7.5
2018-Oct-13 04:03N 28°19' W 015°13'0 9.1
2018-Oct-13 04:00N 28°19' W 015°13'5 9.3
2018-Oct-13 03:30N 28°23' W 015°10'4 9.5
2018-Oct-13 03:04N 28°25' W 015°05'0 9.3
2018-Oct-13 03:00N 28°25' W 015°05'5 9.7
2018-Oct-13 02:30N 28°27' W 014°60'4 9.9
2018-Oct-13 02:03N 28°29' W 014°55'0 9.9
2018-Oct-13 02:01N 28°29' W 014°55'5 9.7
2018-Oct-13 01:30N 28°31' W 014°50'4 9.6
2018-Oct-13 01:03N 28°33' W 014°46'0 9.5
2018-Oct-13 01:01N 28°34' W 014°45'4 8.9
2018-Oct-13 00:31N 28°35' W 014°40'5 9.1
2018-Oct-12 23:59N 28°38' W 014°36'5 9.4
2018-Oct-12 23:30N 28°40' W 014°31'4 9.3
2018-Oct-12 23:03N 28°41' W 014°27'1 9.2
2018-Oct-12 22:59N 28°42' W 014°26'5 9.3
2018-Oct-12 22:29N 28°44' W 014°22'4 9.4
2018-Oct-12 22:03N 28°46' W 014°17'0 9.7
2018-Oct-12 22:00N 28°46' W 014°17'41 3.8
2018-Oct-12 11:13N 28°58' W 013°32'0 0.0
2018-Oct-12 10:55N 28°58' W 013°32'0 0.0
2018-Oct-12 10:13N 28°58' W 013°32'0 0.0
2018-Oct-12 06:17N 28°58' W 013°32'58315.9
2018-Oct-10 17:40N 36°33' W 006°19'211.2
2018-Oct-10 17:31N 36°33' W 006°17'1 0.6
2018-Oct-10 15:34N 36°32' W 006°17'0 0.0
2018-Oct-10 14:49N 36°32' W 006°17'0 0.0
2018-Oct-10 07:58N 36°32' W 006°17'2 4.1
2018-Oct-10 07:30N 36°34' W 006°19'11718.5
2018-Oct-10 01:12N 36°31' W 008°44'6415.4
2018-Oct-09 21:04N 37°21' W 009°33'018.5
2018-Oct-09 21:03N 37°21' W 009°33'118.6
2018-Oct-09 21:01N 37°22' W 009°33'1218.8
2018-Oct-09 20:24N 37°33' W 009°31'619.1
2018-Oct-09 20:04N 37°40' W 009°30'119.2
2018-Oct-09 20:00N 37°41' W 009°30'919.1
2018-Oct-09 19:31N 37°50' W 009°29'818.7
2018-Oct-09 19:04N 37°59' W 009°28'118.3
2018-Oct-09 19:00N 37°59' W 009°27'918.6
2018-Oct-09 18:30N 38°09' W 009°26'818.6
2018-Oct-09 18:04N 38°17' W 009°25'118.6
2018-Oct-09 18:01N 38°18' W 009°25'918.1
2018-Oct-09 17:31N 38°27' W 009°24'818.4
2018-Oct-09 17:04N 38°35' W 009°23'118.2
2018-Oct-09 17:01N 38°36' W 009°23'916.9
2018-Oct-09 16:30N 38°41' W 009°14'511.7
2018-Oct-09 16:03N 38°42' W 009°08'0 2.1
2018-Oct-09 16:00N 38°42' W 009°08'0 0.0
2018-Oct-09 15:29N 38°42' W 009°08'0 0.0
2018-Oct-09 15:02N 38°42' W 009°08'0 0.0
2018-Oct-09 14:59N 38°42' W 009°08'0 0.0
2018-Oct-09 14:29N 38°42' W 009°08'0 0.0
2018-Oct-09 13:29N 38°42' W 009°08'0 0.0
2018-Oct-09 13:02N 38°42' W 009°08'0 0.0
2018-Oct-09 12:59N 38°42' W 009°08'0 0.0
2018-Oct-09 12:29N 38°42' W 009°08'0 0.0
2018-Oct-09 12:02N 38°42' W 009°08'0 0.0
2018-Oct-09 11:59N 38°42' W 009°08'0 0.0
2018-Oct-09 11:29N 38°42' W 009°08'0 0.0
2018-Oct-09 11:02N 38°42' W 009°08'0 0.0
2018-Oct-09 10:59N 38°42' W 009°08'0 0.0
2018-Oct-09 10:26N 38°42' W 009°08'0 0.0
2018-Oct-09 10:02N 38°42' W 009°08'0 0.0
2018-Oct-09 09:59N 38°42' W 009°08'0 0.0
2018-Oct-09 09:29N 38°42' W 009°08'0 0.0
2018-Oct-09 08:56N 38°42' W 009°08'0 0.0
2018-Oct-09 08:29N 38°42' W 009°08'0 0.0
2018-Oct-09 08:02N 38°42' W 009°08'0 0.0
2018-Oct-09 07:59N 38°42' W 009°08'0 0.0
2018-Oct-09 07:29N 38°42' W 009°08'0 0.1
2018-Oct-09 07:04N 38°42' W 009°08'0 2.6
2018-Oct-09 07:00N 38°42' W 009°07'3 5.5
2018-Oct-09 06:30N 38°41' W 009°11'511.4
2018-Oct-09 06:04N 38°41' W 009°17'113.8
2018-Oct-09 06:01N 38°40' W 009°18'714.8
2018-Oct-09 05:31N 38°37' W 009°26'715.0
2018-Oct-09 05:04N 38°38' W 009°35'114.4
2018-Oct-09 05:01N 38°38' W 009°36'713.7
2018-Oct-09 04:30N 38°42' W 009°42'816.8
2018-Oct-09 04:03N 38°50' W 009°43'117.3
2018-Oct-09 04:00N 38°51' W 009°43'816.5
2018-Oct-09 03:30N 38°59' W 009°42'716.7
2018-Oct-09 03:03N 39°06' W 009°44'116.4
2018-Oct-09 03:00N 39°07' W 009°44'816.0
2018-Oct-09 02:31N 39°15' W 009°45'715.8
2018-Oct-09 02:03N 39°22' W 009°45'116.1
2018-Oct-09 02:00N 39°23' W 009°45'816.7
2018-Oct-09 01:30N 39°31' W 009°45'716.6
2018-Oct-09 01:03N 39°39' W 009°46'116.1
2018-Oct-09 01:00N 39°40' W 009°46'816.2
2018-Oct-09 00:30N 39°48' W 009°44'716.1
2018-Oct-09 00:03N 39°55' W 009°41'1016.1
2018-Oct-08 23:27N 40°04' W 009°38'616.0
2018-Oct-08 23:03N 40°10' W 009°36'115.8
2018-Oct-08 23:00N 40°11' W 009°36'815.7
2018-Oct-08 22:30N 40°19' W 009°34'917.9
2018-Oct-08 22:02N 40°27' W 009°31'918.9
2018-Oct-08 21:34N 40°35' W 009°29'218.8
2018-Oct-08 21:29N 40°37' W 009°28'818.7
2018-Oct-08 21:03N 40°45' W 009°26'118.9
2018-Oct-08 21:00N 40°46' W 009°25'919.0
2018-Oct-08 20:30N 40°55' W 009°23'919.0
2018-Oct-08 20:02N 41°03' W 009°20'119.2
2018-Oct-08 20:00N 41°04' W 009°19'1020.2
2018-Oct-08 19:30N 41°14' W 009°16'919.5
2018-Oct-08 19:03N 41°22' W 009°13'119.5
2018-Oct-08 19:00N 41°23' W 009°12'4419.4
2018-Oct-08 16:45N 42°06' W 008°58'519.1
2018-Oct-08 16:30N 42°10' W 008°54'817.6
2018-Oct-08 16:03N 42°14' W 008°46'112.2
2018-Oct-08 16:00N 42°14' W 008°45'1 0.1
2018-Oct-08 08:32N 42°15' W 008°44'0 5.9
2018-Oct-08 08:30N 42°15' W 008°44'612.6
2018-Oct-08 08:04N 42°14' W 008°52'117.2
2018-Oct-08 08:01N 42°14' W 008°53'918.8
2018-Oct-08 07:30N 42°21' W 009°02'50916.4
2018-Oct-07 00:28N 49°50' W 003°16'1117.2
2018-Oct-06 23:50N 49°55' W 003°02'717.7
2018-Oct-06 23:27N 49°58' W 002°52'817.9
2018-Oct-06 23:02N 50°00' W 002°41'1517.5
2018-Oct-06 22:10N 50°06' W 002°19'317.0
2018-Oct-06 21:58N 50°08' W 002°14'1016.4
2018-Oct-06 21:22N 50°12' W 002°01'3314.0
2018-Oct-06 19:02N 50°28' W 001°16'112.8
2018-Oct-06 18:59N 50°28' W 001°15'612.3
2018-Oct-06 18:30N 50°31' W 001°07'612.6
2018-Oct-06 18:03N 50°35' W 001°00'114.5
2018-Oct-06 18:00N 50°36' W 000°60'713.4
2018-Oct-06 17:30N 50°42' W 000°58'613.7
2018-Oct-06 17:04N 50°45' W 001°07'119.9
2018-Oct-06 17:01N 50°45' W 001°08'713.3
2018-Oct-06 16:31N 50°48' W 001°18'4 9.0
2018-Oct-06 16:03N 50°51' W 001°21'112.1
2018-Oct-06 16:00N 50°52' W 001°22'3 4.5
2018-Oct-06 15:22N 50°54' W 001°25'0 0.0
2018-Oct-06 14:49N 50°54' W 001°25'0 0.0
2018-Oct-06 14:01N 50°54' W 001°25'0 0.0
2018-Oct-06 13:52N 50°54' W 001°25'0 0.0
2018-Oct-06 13:28N 50°54' W 001°25'0 0.0
2018-Oct-06 12:52N 50°54' W 001°25'0 0.0
2018-Oct-06 11:46N 50°54' W 001°25'0 0.0
2018-Oct-06 11:22N 50°54' W 001°25'0 0.0
2018-Oct-06 07:10N 50°54' W 001°25'0 0.0
2018-Oct-06 07:01N 50°54' W 001°25'0 0.0
2018-Oct-06 06:52N 50°54' W 001°25'0 0.0
2018-Oct-06 06:25N 50°54' W 001°25'0 0.0
2018-Oct-06 05:55N 50°54' W 001°25'0 0.0
2018-Oct-06 05:28N 50°54' W 001°25'0 0.0
2018-Oct-06 04:34N 50°54' W 001°25'0 0.0
2018-Oct-06 04:22N 50°54' W 001°25'0 0.0
2018-Oct-06 04:03N 50°54' W 001°25'0 0.2
2018-Oct-06 04:00N 50°54' W 001°25'3 5.0
2018-Oct-06 03:30N 50°52' W 001°22'510.1
2018-Oct-06 03:04N 50°49' W 001°17'111.8
2018-Oct-06 03:00N 50°48' W 001°18'510.2
2018-Oct-06 02:30N 50°46' W 001°11'817.9
2018-Oct-06 02:04N 50°43' W 000°59'114.4
2018-Oct-06 02:01N 50°42' W 000°58'713.2
2018-Oct-06 01:30N 50°36' W 000°60'817.8
2018-Oct-06 01:03N 50°30' W 001°10'118.1
2018-Oct-06 01:00N 50°30' W 001°11'918.0
2018-Oct-06 00:30N 50°24' W 001°22'817.6
2018-Oct-06 00:03N 50°20' W 001°32'117.5
2018-Oct-06 00:00N 50°19' W 001°33'917.5
2018-Oct-05 23:30N 50°15' W 001°45'817.2
2018-Oct-05 23:03N 50°10' W 001°54'117.1
2018-Oct-05 23:00N 50°09' W 001°55'816.9
2018-Oct-05 22:30N 50°05' W 002°06'817.0
2018-Oct-05 22:03N 50°00' W 002°16'117.1
2018-Oct-05 22:00N 49°60' W 002°17'817.0
2018-Oct-05 21:30N 49°56' W 002°29'817.3
2018-Oct-05 21:03N 49°54' W 002°41'117.0
2018-Oct-05 21:00N 49°54' W 002°42'917.4
2018-Oct-05 20:30N 49°51' W 002°55'817.9
2018-Oct-05 20:03N 49°47' W 003°05'118.2
2018-Oct-05 20:00N 49°46' W 003°06'918.1
2018-Oct-05 19:30N 49°41' W 003°19'1017.8
2018-Oct-05 18:57N 49°37' W 003°32'1418.0
2018-Oct-05 18:09N 49°30' W 003°51'850.5
2018-Oct-05 17:59N 49°25' W 004°02'4016.8
2018-Oct-05 15:35N 49°03' W 004°54'219.6
2018-Oct-05 15:29N 49°02' W 004°57'819.6
2018-Oct-05 15:03N 48°58' W 005°07'119.6
2018-Oct-05 15:00N 48°57' W 005°09'1019.2
2018-Oct-05 14:30N 48°52' W 005°21'1019.9
2018-Oct-05 14:00N 48°46' W 005°33'1020.0
2018-Oct-05 13:30N 48°39' W 005°43'1420.0
2018-Oct-05 12:48N 48°26' W 005°54'24319.6
2018-Oct-05 00:21N 44°50' W 008°36'1819.5
2018-Oct-04 23:26N 44°34' W 008°47'  

Dump ship's entire track history